Terminal Aerodrome Forecast
Issued by NWS Greer, SC

Home | Current Version | Previous Version | Text Only | Print | Product List | Glossary On
Versions: 1 2 3 4 5 6 7 8 9 10 11 12 13 14 15 16 17 18 19 20 21 22 23 24 25 26 27 28 29 30 31 32 33 34
000
FTUS42 KGSP 241404 AAC
TAFAVL
TAF AMD
KAVL 241404Z 2414/2512 17010G19KT P6SM SCT025
     FM241700 21013G23KT P6SM SCT035
     FM242200 22009KT P6SM SCT250
     FM250000 25005KT P6SM SCT250
     FM250500 32005KT P6SM SCT250=

USA.gov is the U.S. government's official web portal to all federal, state and local government web resources and services.